L53 weather

Lodi Airpark
Lodi, California, United States

Public forecast

Using degrees Fahrenheit for public forecast. Weather courtesy of forecast.io.

METAR (pilot weather report)

Closest report is Stockton Metropolitan Airport, 12.0 nm (22.2 km) SSE. Retrieved 2019/08/17 15:55 UTC (21 minutes ago):

KSCK 171555Z VRB06KT 10SM CLR 23/14 A2979 RMK AO2 SLP086 T02330139

TAF (pilot weather forecast)

Closest forecast is Stockton Metropolitan Airport, 12.0 nm (22.2 km) SSE. Retrieved 2019/08/17 12:22 UTC (4 hours ago):

TAF KSCK 171120Z 1712/1812 31006KT P6SM SKC FM172300 29012G20KT P6SM SKC FM180700 33006KT P6SM SKC